Time;durP1;ratioP1;P1;durP2;ratioP2;P2;SDS_P1;SDS_P2;PMS_P1;PMS_P2;Temp;Humidity;BMP_temperature;BMP_pressure;BME280_temperature;BME280_humidity;BME280_pressure;Samples;Min_cycle;Max_cycle;Signal;HPM_P1;HPM_P2
2023/06/11 00:01:17;;;;;;;10.55;6.32;;;20.10;99.90;;;;;;4976571;28;20604;-89
2023/06/11 00:03:46;;;;;;;17.65;7.45;;;20.00;99.90;;;;;;4974623;28;20077;-88
2023/06/11 00:06:17;;;;;;;12.38;6.68;;;20.00;99.90;;;;;;4974745;28;20046;-89
2023/06/11 00:08:54;;;;;;;12.57;7.13;;;19.90;99.90;;;;;;4979356;28;20104;-88
2023/06/11 00:11:22;;;;;;;12.93;7.03;;;19.90;99.90;;;;;;4985925;28;20041;-87
2023/06/11 00:13:49;;;;;;;12.18;7.57;;;19.90;99.90;;;;;;4975008;28;20039;-89
2023/06/11 00:16:15;;;;;;;13.73;7.00;;;19.90;99.90;;;;;;4979105;28;20082;-88
2023/06/11 00:18:42;;;;;;;10.30;6.65;;;19.90;99.90;;;;;;4982293;28;20449;-87
2023/06/11 00:21:09;;;;;;;8.80;6.05;;;19.80;99.90;;;;;;4976192;28;20039;-88
2023/06/11 00:23:36;;;;;;;8.73;5.55;;;19.80;99.90;;;;;;4986266;28;20480;-87
2023/06/11 00:26:05;;;;;;;12.05;6.70;;;19.80;99.90;;;;;;4987335;28;20045;-88
2023/06/11 00:28:31;;;;;;;13.70;7.13;;;19.80;99.90;;;;;;4986467;28;20050;-88
2023/06/11 00:30:56;;;;;;;11.65;7.25;;;19.70;99.90;;;;;;4984352;28;20049;-87
2023/06/11 00:33:22;;;;;;;10.48;6.47;;;19.70;99.90;;;;;;4983527;28;20045;-87
2023/06/11 00:35:51;;;;;;;9.40;6.13;;;19.70;99.90;;;;;;4992180;28;20508;-88
2023/06/11 00:38:17;;;;;;;13.30;7.00;;;19.70;99.90;;;;;;4988437;28;20038;-88
2023/06/11 00:40:42;;;;;;;11.75;7.35;;;19.70;99.90;;;;;;4969984;28;20106;-87
2023/06/11 00:43:08;;;;;;;9.43;6.13;;;19.70;99.90;;;;;;4982760;28;20139;-88
2023/06/11 00:45:35;;;;;;;9.63;6.78;;;19.70;99.90;;;;;;4981537;28;20050;-87
2023/06/11 00:48:01;;;;;;;9.50;6.97;;;19.60;99.90;;;;;;4985789;28;20050;-87
2023/06/11 00:50:28;;;;;;;10.05;6.45;;;19.60;99.90;;;;;;4990066;28;20042;-87
2023/06/11 00:52:54;;;;;;;8.27;6.82;;;19.60;99.90;;;;;;4972337;28;20526;-88
2023/06/11 00:55:23;;;;;;;9.65;6.40;;;19.60;99.90;;;;;;4986921;28;20050;-88
2023/06/11 00:57:49;;;;;;;11.57;7.32;;;19.60;99.90;;;;;;4982405;28;20230;-87
2023/06/11 01:00:15;;;;;;;9.52;6.68;;;19.70;99.90;;;;;;4990279;28;20057;-87
2023/06/11 01:02:47;;;;;;;11.65;7.13;;;19.60;99.90;;;;;;4980246;28;20054;-88
2023/06/11 01:05:17;;;;;;;8.55;7.00;;;19.60;99.90;;;;;;4984111;28;20076;-88
2023/06/11 01:07:51;;;;;;;10.30;6.53;;;19.50;99.90;;;;;;4963371;28;20134;-87
2023/06/11 01:10:21;;;;;;;10.27;6.22;;;19.50;99.90;;;;;;4984029;28;20125;-87
2023/06/11 01:12:48;;;;;;;12.05;7.15;;;19.50;99.90;;;;;;4966904;28;20532;-88
2023/06/11 01:15:14;;;;;;;11.15;7.43;;;19.50;99.90;;;;;;4977340;28;20031;-88
2023/06/11 01:18:00;;;;;;;9.93;6.85;;;19.50;99.90;;;;;;4980499;28;20043;-88
2023/06/11 01:20:35;;;;;;;9.15;7.05;;;19.40;99.90;;;;;;4986432;28;20101;-87
2023/06/11 01:23:09;;;;;;;9.60;7.40;;;19.40;99.90;;;;;;4960972;28;20042;-86
2023/06/11 01:25:57;;;;;;;14.80;8.13;;;19.30;99.90;;;;;;4975926;28;20089;-87
2023/06/11 01:28:28;;;;;;;12.23;7.40;;;19.30;99.90;;;;;;4978542;28;20773;-88
2023/06/11 01:30:58;;;;;;;13.10;8.25;;;19.20;99.90;;;;;;4981401;28;20047;-88
2023/06/11 01:33:27;;;;;;;10.57;7.32;;;19.20;99.90;;;;;;4984938;28;20089;-88
2023/06/11 01:35:57;;;;;;;11.73;7.72;;;19.20;99.90;;;;;;4974074;28;20477;-88
2023/06/11 01:38:25;;;;;;;9.80;8.10;;;19.20;99.90;;;;;;4986218;28;20050;-87
2023/06/11 01:40:55;;;;;;;11.88;8.13;;;19.10;99.90;;;;;;4978814;28;20048;-88
2023/06/11 01:43:23;;;;;;;10.93;7.93;;;19.10;99.90;;;;;;4979809;28;20109;-86
2023/06/11 01:45:49;;;;;;;11.43;7.43;;;19.10;99.90;;;;;;4977895;28;20552;-87
2023/06/11 01:48:15;;;;;;;13.13;7.78;;;19.10;99.90;;;;;;4986061;28;20074;-87
2023/06/11 01:50:41;;;;;;;11.07;8.80;;;19.10;99.90;;;;;;4963291;28;20398;-87
2023/06/11 01:53:07;;;;;;;13.05;8.70;;;19.10;99.90;;;;;;4976717;28;20039;-87
2023/06/11 01:55:32;;;;;;;12.07;8.52;;;19.00;99.90;;;;;;4986349;28;20078;-87
2023/06/11 01:57:59;;;;;;;11.35;8.88;;;19.00;99.90;;;;;;4983830;28;20045;-87
2023/06/11 02:00:25;;;;;;;16.90;8.40;;;19.00;99.90;;;;;;4966406;28;20046;-87
2023/06/11 02:02:51;;;;;;;12.50;9.05;;;19.00;99.90;;;;;;4979702;28;20046;-86
2023/06/11 02:05:18;;;;;;;9.57;7.90;;;18.90;99.90;;;;;;4965467;28;20039;-86
2023/06/11 02:07:45;;;;;;;15.10;9.50;;;18.90;99.90;;;;;;4984743;28;20038;-86
2023/06/11 02:10:11;;;;;;;11.90;8.68;;;18.80;99.90;;;;;;4984646;28;20035;-87
2023/06/11 02:12:37;;;;;;;11.35;9.13;;;18.80;99.90;;;;;;4983916;28;20073;-88
2023/06/11 02:15:05;;;;;;;12.38;8.95;;;18.80;99.90;;;;;;4982993;28;20034;-87
2023/06/11 02:17:31;;;;;;;12.95;9.13;;;18.70;99.90;;;;;;4977998;28;20108;-86
2023/06/11 02:19:57;;;;;;;12.60;9.65;;;18.80;99.90;;;;;;4980964;28;20046;-86
2023/06/11 02:22:24;;;;;;;12.90;9.68;;;18.70;99.90;;;;;;4983705;28;20076;-86
2023/06/11 02:24:51;;;;;;;11.55;9.30;;;18.70;99.90;;;;;;4978941;28;20129;-86
2023/06/11 02:27:17;;;;;;;10.93;8.85;;;18.70;99.90;;;;;;4986686;28;20466;-86
2023/06/11 02:29:43;;;;;;;10.43;9.32;;;18.60;99.90;;;;;;4981315;28;20105;-86
2023/06/11 02:32:15;;;;;;;11.75;9.10;;;18.60;99.90;;;;;;4983763;28;20039;-87
2023/06/11 02:34:41;;;;;;;12.50;8.85;;;18.60;99.90;;;;;;4979540;28;20038;-87
2023/06/11 02:37:08;;;;;;;9.85;8.82;;;18.60;99.90;;;;;;4980418;28;20103;-86
2023/06/11 02:39:37;;;;;;;12.82;8.93;;;18.50;99.90;;;;;;4982818;28;20532;-87
2023/06/11 02:42:03;;;;;;;12.57;9.75;;;18.50;99.90;;;;;;4976939;28;20043;-86
2023/06/11 02:44:29;;;;;;;12.68;9.02;;;18.50;99.90;;;;;;4963123;28;20045;-86
2023/06/11 02:46:55;;;;;;;14.45;10.07;;;18.50;99.90;;;;;;4985456;28;20042;-85
2023/06/11 02:49:21;;;;;;;10.88;9.35;;;18.40;99.90;;;;;;4975297;28;20117;-87
2023/06/11 02:51:46;;;;;;;10.65;9.52;;;18.40;99.90;;;;;;4975617;28;20030;-86
2023/06/11 02:54:15;;;;;;;10.60;9.02;;;18.40;99.90;;;;;;4985808;28;20045;-86
2023/06/11 02:56:40;;;;;;;11.68;9.73;;;18.40;99.90;;;;;;4981180;28;20040;-86
2023/06/11 02:59:06;;;;;;;12.52;10.18;;;18.40;99.90;;;;;;4968029;28;20037;-87
2023/06/11 03:01:32;;;;;;;12.20;10.35;;;18.30;99.90;;;;;;4977372;28;20113;-86
2023/06/11 03:03:58;;;;;;;12.35;10.68;;;18.30;99.90;;;;;;4963713;28;20078;-86
2023/06/11 03:06:24;;;;;;;13.60;9.82;;;18.30;99.90;;;;;;4985689;28;20043;-86
2023/06/11 03:08:53;;;;;;;12.60;9.95;;;18.20;99.90;;;;;;4977817;28;20038;-84
2023/06/11 03:11:19;;;;;;;12.45;10.25;;;18.20;99.90;;;;;;4977013;28;20038;-85
2023/06/11 03:13:44;;;;;;;11.27;9.85;;;18.20;99.90;;;;;;4982492;28;20413;-86
2023/06/11 03:16:13;;;;;;;11.60;10.40;;;18.20;99.90;;;;;;4979473;28;20442;-87
2023/06/11 03:18:39;;;;;;;13.10;10.57;;;18.10;99.90;;;;;;4969401;28;20641;-86
2023/06/11 03:21:05;;;;;;;11.23;9.25;;;18.10;99.90;;;;;;4978952;28;20062;-85
2023/06/11 03:23:31;;;;;;;13.65;11.02;;;18.10;99.90;;;;;;4982339;28;20076;-86
2023/06/11 03:26:00;;;;;;;12.05;10.15;;;18.10;99.90;;;;;;4967946;28;20065;-86
2023/06/11 03:28:26;;;;;;;12.57;10.52;;;18.10;99.90;;;;;;4978496;28;20045;-86
2023/06/11 03:30:52;;;;;;;13.27;10.02;;;18.00;99.90;;;;;;4967790;28;20486;-86
2023/06/11 03:33:18;;;;;;;12.65;10.40;;;18.00;99.90;;;;;;4967416;28;20089;-86
2023/06/11 03:35:44;;;;;;;13.07;11.15;;;18.00;99.90;;;;;;4987123;28;20320;-86
2023/06/11 03:38:10;;;;;;;12.13;10.85;;;18.00;99.90;;;;;;4981693;28;20366;-87
2023/06/11 03:40:36;;;;;;;13.88;9.98;;;18.00;99.90;;;;;;4979671;28;20408;-86
2023/06/11 03:43:02;;;;;;;13.27;10.85;;;17.90;99.90;;;;;;4985187;28;20055;-86
2023/06/11 03:45:28;;;;;;;13.63;11.13;;;18.00;99.90;;;;;;4980980;28;20116;-85
2023/06/11 03:47:55;;;;;;;12.82;10.57;;;17.90;99.90;;;;;;4986069;28;20039;-86
2023/06/11 03:50:22;;;;;;;12.55;9.52;;;18.00;99.90;;;;;;4985656;28;20037;-86
2023/06/11 03:52:51;;;;;;;14.07;11.13;;;17.90;99.90;;;;;;4980801;28;20038;-86
2023/06/11 03:55:18;;;;;;;12.68;11.32;;;17.90;99.90;;;;;;4978981;28;20088;-86
2023/06/11 03:57:45;;;;;;;13.80;11.07;;;17.90;99.90;;;;;;4980117;28;20118;-86
2023/06/11 04:00:11;;;;;;;12.43;10.40;;;17.90;99.90;;;;;;4972934;28;20042;-86
2023/06/11 04:02:37;;;;;;;13.85;10.93;;;17.90;99.90;;;;;;4976026;28;20517;-86
2023/06/11 04:05:03;;;;;;;14.85;10.20;;;17.90;99.90;;;;;;4980921;28;20035;-86
2023/06/11 04:07:29;;;;;;;13.48;11.15;;;17.90;99.90;;;;;;4986238;28;20074;-86
2023/06/11 04:09:55;;;;;;;14.95;10.93;;;17.90;99.90;;;;;;4983747;28;20042;-86
2023/06/11 04:12:20;;;;;;;14.65;10.93;;;17.80;99.90;;;;;;4984232;28;20147;-86
2023/06/11 04:14:46;;;;;;;14.20;11.18;;;17.90;99.90;;;;;;4987501;28;20181;-86
2023/06/11 04:17:12;;;;;;;12.15;10.60;;;17.90;99.90;;;;;;4974400;28;20096;-86
2023/06/11 04:19:38;;;;;;;13.65;11.15;;;17.90;99.90;;;;;;4977873;28;20478;-86
2023/06/11 04:22:04;;;;;;;12.88;11.05;;;17.90;99.90;;;;;;4978317;28;20086;-86
2023/06/11 04:24:29;;;;;;;12.38;10.95;;;17.90;99.90;;;;;;4981927;28;20042;-87
2023/06/11 04:26:56;;;;;;;14.52;11.55;;;17.90;99.90;;;;;;4983983;28;20039;-86
2023/06/11 04:29:23;;;;;;;14.15;10.88;;;17.90;99.90;;;;;;4984954;28;20498;-86
2023/06/11 04:31:50;;;;;;;14.88;11.25;;;17.90;99.90;;;;;;4974025;28;20031;-86
2023/06/11 04:34:17;;;;;;;15.07;11.32;;;18.00;99.90;;;;;;4978480;28;20045;-86
2023/06/11 04:36:43;;;;;;;17.35;12.02;;;17.90;99.90;;;;;;4973020;28;20474;-86
2023/06/11 04:39:12;;;;;;;14.32;11.40;;;17.80;99.90;;;;;;4976938;28;20045;-86
2023/06/11 04:41:38;;;;;;;13.80;11.75;;;17.90;99.90;;;;;;4981053;28;20038;-86
2023/06/11 04:44:04;;;;;;;20.33;12.77;;;18.10;99.90;;;;;;4987397;28;20495;-85
2023/06/11 04:46:32;;;;;;;13.60;11.20;;;17.90;99.90;;;;;;4958880;28;20035;-85
2023/06/11 04:49:00;;;;;;;14.90;11.45;;;17.90;99.90;;;;;;4991629;28;20030;-85
2023/06/11 04:51:29;;;;;;;13.98;11.57;;;17.90;99.90;;;;;;4981369;28;20061;-86
2023/06/11 04:53:57;;;;;;;15.25;11.90;;;18.00;99.90;;;;;;4979227;28;20049;-86
2023/06/11 04:56:23;;;;;;;14.10;11.77;;;18.00;99.90;;;;;;4981920;28;20066;-86
2023/06/11 04:58:49;;;;;;;13.52;12.02;;;18.10;99.90;;;;;;4978491;28;20045;-89
2023/06/11 05:01:15;;;;;;;13.35;11.48;;;18.00;99.90;;;;;;4982408;28;20501;-86
2023/06/11 05:03:41;;;;;;;12.60;11.30;;;18.10;99.90;;;;;;4998339;28;20060;-85
2023/06/11 05:06:08;;;;;;;12.50;11.07;;;18.10;99.90;;;;;;5001712;28;20042;-85
2023/06/11 05:08:34;;;;;;;15.13;12.27;;;18.20;99.90;;;;;;4998107;28;20061;-84
2023/06/11 05:11:00;;;;;;;14.38;12.45;;;18.20;99.90;;;;;;4996432;28;20034;-86
2023/06/11 05:13:26;;;;;;;16.00;11.20;;;18.20;99.90;;;;;;4993743;28;20417;-85
2023/06/11 05:15:52;;;;;;;13.90;11.88;;;18.10;99.90;;;;;;4996770;28;20034;-89
2023/06/11 05:18:18;;;;;;;17.25;11.10;;;18.20;99.90;;;;;;4992081;28;20072;-89
2023/06/11 05:20:43;;;;;;;12.77;11.15;;;18.30;99.90;;;;;;5000531;28;20462;-88
2023/06/11 05:23:10;;;;;;;14.02;10.95;;;18.30;99.90;;;;;;4990686;28;20070;-89
2023/06/11 05:25:35;;;;;;;13.32;11.95;;;18.30;99.90;;;;;;4983351;28;20116;-88
2023/06/11 05:28:06;;;;;;;15.25;11.63;;;18.40;99.90;;;;;;4986242;28;20121;-88
2023/06/11 05:30:36;;;;;;;15.95;11.65;;;18.30;99.90;;;;;;4986961;28;20037;-87
2023/06/11 05:33:02;;;;;;;16.05;11.93;;;18.50;99.90;;;;;;4998549;28;20034;-87
2023/06/11 05:35:29;;;;;;;14.23;11.55;;;18.40;99.90;;;;;;4997446;28;20093;-87
2023/06/11 05:37:57;;;;;;;14.27;12.15;;;18.40;99.90;;;;;;4994858;28;20034;-87
2023/06/11 05:40:23;;;;;;;14.02;11.02;;;18.40;99.90;;;;;;5000574;28;20046;-87
2023/06/11 05:42:49;;;;;;;12.90;11.60;;;18.50;99.90;;;;;;4992371;28;20564;-87
2023/06/11 05:45:15;;;;;;;14.13;11.18;;;18.50;99.90;;;;;;4999811;28;20050;-86
2023/06/11 05:47:41;;;;;;;15.43;11.55;;;18.50;99.90;;;;;;5001159;28;20048;-86
2023/06/11 05:50:07;;;;;;;12.88;10.77;;;18.60;99.90;;;;;;4995725;28;20093;-84
2023/06/11 05:52:33;;;;;;;14.25;11.68;;;18.60;99.90;;;;;;4996045;28;20043;-86
2023/06/11 05:54:58;;;;;;;14.27;11.80;;;18.60;99.90;;;;;;4997445;28;20038;-86
2023/06/11 05:57:24;;;;;;;13.82;11.57;;;18.70;99.90;;;;;;5001806;28;20061;-86
2023/06/11 05:59:53;;;;;;;14.82;11.57;;;18.70;99.90;;;;;;4998660;28;20034;-87
2023/06/11 06:02:19;;;;;;;14.70;11.18;;;18.70;99.90;;;;;;4999632;28;20053;-90
2023/06/11 06:04:47;;;;;;;15.15;12.07;;;18.80;99.90;;;;;;5002163;28;20046;-89
2023/06/11 06:07:12;;;;;;;15.80;10.85;;;18.80;99.90;;;;;;5002917;28;20060;-84
2023/06/11 06:09:40;;;;;;;15.18;10.52;;;18.80;99.90;;;;;;4994521;28;20050;-83
2023/06/11 06:12:06;;;;;;;14.68;11.45;;;18.90;99.90;;;;;;4995708;28;20050;-86
2023/06/11 06:14:32;;;;;;;13.82;11.13;;;18.90;99.90;;;;;;5001157;28;20042;-87
2023/06/11 06:16:58;;;;;;;13.73;10.80;;;18.90;99.90;;;;;;4994125;28;20048;-85
2023/06/11 06:19:23;;;;;;;13.52;10.63;;;19.00;99.90;;;;;;4997804;28;20042;-89
2023/06/11 06:21:49;;;;;;;13.73;11.20;;;19.00;99.90;;;;;;5002515;28;20115;-86
2023/06/11 06:24:15;;;;;;;14.50;11.23;;;19.10;99.90;;;;;;4999331;28;20042;-83
2023/06/11 06:26:43;;;;;;;16.75;11.15;;;19.20;99.90;;;;;;5003811;28;20468;-84
2023/06/11 06:29:12;;;;;;;12.63;11.13;;;19.20;99.90;;;;;;4999169;28;20054;-84
2023/06/11 06:31:41;;;;;;;13.55;11.00;;;19.30;99.90;;;;;;5000114;28;20038;-87
2023/06/11 06:34:07;;;;;;;15.57;11.82;;;19.40;99.90;;;;;;4999909;28;20052;-86
2023/06/11 06:36:35;;;;;;;15.05;11.38;;;19.40;99.90;;;;;;5000292;28;20041;-87
2023/06/11 06:39:01;;;;;;;12.63;10.80;;;19.50;99.90;;;;;;4999902;28;20033;-86
2023/06/11 06:41:27;;;;;;;13.32;11.02;;;19.60;99.90;;;;;;4994543;28;20031;-86
2023/06/11 06:43:53;;;;;;;14.50;10.90;;;19.60;99.90;;;;;;4998346;28;20108;-86
2023/06/11 06:46:18;;;;;;;15.07;10.43;;;19.60;99.90;;;;;;4992666;28;20482;-86
2023/06/11 06:48:44;;;;;;;13.55;10.98;;;19.70;99.90;;;;;;4994592;28;20499;-86
2023/06/11 06:51:10;;;;;;;12.45;10.85;;;19.70;99.90;;;;;;4993031;28;20034;-86
2023/06/11 06:53:35;;;;;;;13.88;10.32;;;19.80;99.90;;;;;;4994638;28;20501;-86
2023/06/11 06:56:02;;;;;;;15.25;10.85;;;19.90;99.90;;;;;;4999252;28;20030;-86
2023/06/11 06:58:27;;;;;;;16.20;11.05;;;19.90;99.90;;;;;;4998611;28;20485;-86
2023/06/11 07:00:54;;;;;;;14.25;10.50;;;20.00;99.90;;;;;;4991365;28;20069;-86
2023/06/11 07:03:21;;;;;;;16.83;10.90;;;20.00;99.90;;;;;;4997978;28;20052;-86
2023/06/11 07:05:46;;;;;;;14.10;9.73;;;20.20;99.90;;;;;;4998017;28;20061;-86
2023/06/11 07:08:13;;;;;;;13.18;10.77;;;20.30;99.90;;;;;;5002405;28;20042;-86
2023/06/11 07:10:48;;;;;;;11.50;9.48;;;20.40;99.90;;;;;;4983640;28;20035;-86
2023/06/11 07:13:15;;;;;;;12.93;9.98;;;20.60;99.90;;;;;;4997014;28;20038;-87
2023/06/11 07:15:41;;;;;;;14.82;10.30;;;20.70;99.90;;;;;;4997435;28;20049;-86
2023/06/11 07:18:07;;;;;;;17.73;9.88;;;21.00;99.90;;;;;;4999747;28;20049;-86
2023/06/11 07:20:32;;;;;;;15.07;11.02;;;21.30;99.90;;;;;;4994540;28;20069;-87
2023/06/11 07:22:59;;;;;;;13.32;10.57;;;21.60;99.90;;;;;;5002276;28;20069;-87
2023/06/11 07:25:28;;;;;;;12.48;10.13;;;21.90;99.90;;;;;;5000134;28;20054;-87
2023/06/11 07:27:54;;;;;;;13.23;9.95;;;22.10;99.90;;;;;;4998326;28;20109;-87
2023/06/11 07:30:20;;;;;;;13.23;10.13;;;22.40;99.90;;;;;;5002333;28;20038;-87
2023/06/11 07:32:46;;;;;;;13.02;9.52;;;22.60;99.90;;;;;;4996626;28;20092;-87
2023/06/11 07:35:11;;;;;;;11.25;9.48;;;22.80;99.90;;;;;;4997957;28;20037;-87
2023/06/11 07:37:37;;;;;;;11.07;9.70;;;23.00;99.90;;;;;;4997560;28;20517;-87
2023/06/11 07:40:05;;;;;;;12.25;9.02;;;23.20;99.90;;;;;;5001070;28;20042;-87
2023/06/11 07:42:31;;;;;;;11.48;9.35;;;23.40;99.90;;;;;;4995111;28;20042;-87
2023/06/11 07:44:56;;;;;;;11.68;9.32;;;23.50;99.90;;;;;;5001339;28;20494;-88
2023/06/11 07:47:22;;;;;;;12.05;9.93;;;23.70;99.90;;;;;;5000409;28;20038;-88
2023/06/11 07:49:48;;;;;;;13.13;8.90;;;23.70;99.90;;;;;;5000251;28;20426;-87
2023/06/11 07:52:14;;;;;;;11.43;9.18;;;23.80;99.90;;;;;;5000941;28;20112;-88
2023/06/11 07:54:39;;;;;;;14.15;9.57;;;23.90;99.90;;;;;;4998392;28;20030;-87
2023/06/11 07:57:06;;;;;;;13.52;9.43;;;24.00;99.90;;;;;;4994199;28;20435;-88
2023/06/11 07:59:32;;;;;;;11.23;8.88;;;24.10;99.90;;;;;;4994954;28;20053;-87
2023/06/11 08:01:57;;;;;;;12.73;8.52;;;24.30;99.90;;;;;;5001011;28;20058;-88
2023/06/11 08:04:24;;;;;;;13.45;9.85;;;24.40;99.90;;;;;;4999719;28;20057;-87
2023/06/11 08:06:50;;;;;;;11.63;9.15;;;24.50;99.90;;;;;;4998716;28;20043;-88
2023/06/11 08:09:16;;;;;;;11.35;9.40;;;24.60;99.90;;;;;;4999464;28;20057;-87
2023/06/11 08:11:42;;;;;;;11.60;9.07;;;24.70;99.90;;;;;;5001209;28;20052;-88
2023/06/11 08:14:08;;;;;;;10.70;9.43;;;24.80;99.90;;;;;;4996173;28;20038;-88
2023/06/11 08:16:34;;;;;;;10.50;8.50;;;24.90;99.90;;;;;;4999289;28;20033;-87
2023/06/11 08:18:59;;;;;;;11.05;8.98;;;25.00;99.90;;;;;;4996134;28;20038;-89
2023/06/11 08:21:25;;;;;;;13.00;8.82;;;25.20;99.90;;;;;;4998001;28;20050;-89
2023/06/11 08:23:51;;;;;;;10.85;8.77;;;25.20;99.90;;;;;;4994746;28;20153;-88
2023/06/11 08:26:17;;;;;;;10.30;9.00;;;25.30;99.90;;;;;;4993372;28;20046;-88
2023/06/11 08:28:43;;;;;;;10.35;8.50;;;25.30;99.90;;;;;;4998955;28;20404;-88
2023/06/11 08:31:09;;;;;;;10.18;8.40;;;25.40;99.90;;;;;;5001244;28;20536;-88
2023/06/11 08:33:35;;;;;;;10.15;9.00;;;25.50;99.90;;;;;;5000974;28;20041;-88
2023/06/11 08:36:00;;;;;;;11.90;8.50;;;25.60;99.90;;;;;;4994035;28;20046;-87
2023/06/11 08:38:29;;;;;;;11.63;9.07;;;25.60;99.90;;;;;;4990398;28;20069;-88
2023/06/11 08:40:55;;;;;;;11.85;8.95;;;25.60;99.90;;;;;;5001771;28;20045;-88
2023/06/11 08:43:21;;;;;;;11.80;9.27;;;25.70;99.90;;;;;;4997565;28;20049;-88
2023/06/11 08:45:48;;;;;;;12.40;8.65;;;25.80;99.90;;;;;;4999042;28;20409;-88
2023/06/11 08:48:15;;;;;;;12.77;8.50;;;25.80;99.90;;;;;;4997399;28;20091;-88
2023/06/11 08:50:41;;;;;;;9.80;8.13;;;25.90;99.90;;;;;;4993837;28;20046;-88
2023/06/11 08:53:07;;;;;;;12.18;8.52;;;26.00;99.90;;;;;;4997698;28;20037;-88
2023/06/11 08:55:33;;;;;;;11.00;7.88;;;26.10;99.90;;;;;;4994886;28;20397;-88
2023/06/11 08:57:59;;;;;;;14.43;8.73;;;26.20;99.90;;;;;;4999189;28;20041;-88
2023/06/11 09:00:25;;;;;;;10.82;8.45;;;26.30;99.90;;;;;;4995917;28;20054;-88
2023/06/11 09:02:51;;;;;;;10.23;8.00;;;26.30;99.90;;;;;;4994138;28;20080;-88
2023/06/11 09:05:17;;;;;;;10.65;8.05;;;26.40;99.90;;;;;;4996581;28;20599;-88
2023/06/11 09:07:50;;;;;;;11.13;7.72;;;26.50;99.90;;;;;;5002740;28;20038;-88
2023/06/11 09:10:16;;;;;;;11.00;8.05;;;26.60;99.90;;;;;;4992038;28;20039;-88
2023/06/11 09:12:42;;;;;;;14.75;8.32;;;26.70;99.90;;;;;;4995882;28;20400;-88
2023/06/11 09:15:07;;;;;;;10.93;8.10;;;26.80;99.90;;;;;;4998624;28;20461;-88
2023/06/11 09:17:37;;;;;;;10.80;8.25;;;26.80;99.90;;;;;;5002275;28;20037;-88
2023/06/11 09:20:12;;;;;;;10.73;7.93;;;26.90;99.70;;;;;;4994925;28;20038;-89
2023/06/11 09:22:40;;;;;;;13.00;8.30;;;27.00;99.60;;;;;;4998648;28;20485;-88
2023/06/11 09:25:16;;;;;;;10.85;8.27;;;27.10;99.50;;;;;;4987768;28;20081;-88
2023/06/11 09:27:42;;;;;;;9.63;7.97;;;27.20;99.50;;;;;;4992810;28;20061;-88
2023/06/11 09:30:19;;;;;;;10.55;7.53;;;27.30;99.30;;;;;;4983667;28;20042;-88
2023/06/11 09:32:47;;;;;;;10.98;8.05;;;27.30;99.10;;;;;;4995237;28;20070;-87
2023/06/11 09:35:14;;;;;;;10.60;7.40;;;27.40;98.50;;;;;;4995094;28;20038;-88
2023/06/11 09:37:42;;;;;;;9.45;7.55;;;27.50;98.80;;;;;;4995086;28;20203;-89
2023/06/11 09:40:15;;;;;;;9.25;8.13;;;27.50;98.80;;;;;;4992505;28;20054;-89
2023/06/11 09:42:43;;;;;;;8.40;7.43;;;27.60;98.60;;;;;;4994491;28;20516;-88
2023/06/11 09:45:16;;;;;;;10.15;7.25;;;27.70;98.50;;;;;;4999709;28;20042;-88
2023/06/11 09:47:43;;;;;;;11.98;7.50;;;27.80;98.40;;;;;;4976903;28;20112;-88
2023/06/11 09:50:10;;;;;;;9.00;7.68;;;27.90;98.30;;;;;;4991711;28;20212;-89
2023/06/11 09:52:38;;;;;;;11.23;7.70;;;27.90;98.20;;;;;;4996411;28;20034;-89
2023/06/11 09:55:08;;;;;;;10.55;7.40;;;28.00;98.30;;;;;;4994167;28;20062;-88
2023/06/11 09:57:35;;;;;;;8.57;7.68;;;28.10;98.00;;;;;;4994761;28;20038;-89
2023/06/11 10:00:01;;;;;;;10.73;7.30;;;28.20;98.00;;;;;;4997469;28;20042;-89
2023/06/11 10:02:26;;;;;;;11.60;7.30;;;28.30;97.80;;;;;;4994440;28;21803;-89
2023/06/11 10:04:53;;;;;;;11.60;6.93;;;28.40;97.50;;;;;;4996112;28;20045;-88
2023/06/11 10:07:21;;;;;;;9.13;6.75;;;28.50;97.50;;;;;;4993207;28;20038;-89
2023/06/11 10:09:51;;;;;;;8.07;6.60;;;28.60;97.30;;;;;;4997098;28;20161;-89
2023/06/11 10:12:19;;;;;;;8.63;7.10;;;28.70;97.20;;;;;;4994146;28;20042;-89
2023/06/11 10:14:56;;;;;;;8.45;7.03;;;28.70;96.90;;;;;;4997674;28;20034;-90
2023/06/11 10:17:22;;;;;;;11.25;6.60;;;28.80;96.70;;;;;;4997543;28;20473;-89
2023/06/11 10:19:49;;;;;;;8.23;6.65;;;28.80;95.80;;;;;;4995132;28;20104;-89
2023/06/11 10:22:21;;;;;;;10.07;6.75;;;28.90;96.00;;;;;;4996502;28;20049;-89
2023/06/11 10:24:59;;;;;;;9.35;6.80;;;29.00;96.20;;;;;;5000416;28;20037;-89
2023/06/11 10:27:38;;;;;;;9.50;6.70;;;29.10;96.20;;;;;;4995949;28;20567;-89
2023/06/11 10:30:06;;;;;;;12.40;6.53;;;29.20;96.20;;;;;;4992851;28;20137;-89
2023/06/11 10:32:32;;;;;;;10.30;6.80;;;29.30;95.70;;;;;;4986180;28;20074;-88
2023/06/11 10:35:00;;;;;;;10.50;7.10;;;29.40;95.60;;;;;;4987200;28;20084;-89
2023/06/11 10:37:31;;;;;;;8.93;6.55;;;29.40;95.60;;;;;;4985868;28;20512;-89
2023/06/11 10:39:56;;;;;;;8.00;6.57;;;29.50;95.50;;;;;;4999123;28;20077;-89
2023/06/11 10:42:27;;;;;;;7.30;6.30;;;29.60;95.30;;;;;;4991019;28;20041;-90
2023/06/11 10:44:57;;;;;;;9.98;6.38;;;29.70;95.10;;;;;;5007375;28;20042;-90
2023/06/11 10:47:23;;;;;;;17.15;7.05;;;29.80;94.80;;;;;;4996990;28;20602;-89
2023/06/11 10:49:49;;;;;;;7.93;5.97;;;29.80;95.20;;;;;;5002064;28;20524;-90
2023/06/11 10:52:15;;;;;;;10.00;5.97;;;29.80;94.50;;;;;;4994239;28;20393;-89
2023/06/11 10:54:45;;;;;;;7.15;5.55;;;29.90;94.50;;;;;;5000838;28;20064;-90
2023/06/11 10:57:11;;;;;;;7.90;5.25;;;30.00;94.30;;;;;;4997750;28;20531;-90
2023/06/11 10:59:38;;;;;;;9.05;5.82;;;30.00;93.60;;;;;;5002979;28;20078;-89
2023/06/11 11:02:03;;;;;;;9.10;6.10;;;30.10;93.60;;;;;;4994131;28;20105;-89
2023/06/11 11:04:29;;;;;;;9.80;6.25;;;30.10;93.30;;;;;;5001560;28;20038;-89
2023/06/11 11:07:09;;;;;;;7.38;5.68;;;30.20;93.00;;;;;;5000969;28;20504;-89
2023/06/11 11:09:35;;;;;;;7.65;5.40;;;30.30;91.50;;;;;;4997210;28;20050;-89
2023/06/11 11:12:01;;;;;;;9.88;6.25;;;30.30;92.90;;;;;;5000716;28;20038;-90
2023/06/11 11:14:29;;;;;;;6.32;5.63;;;30.40;92.90;;;;;;4995842;28;20046;-91
2023/06/11 11:16:55;;;;;;;9.07;5.88;;;30.40;91.50;;;;;;5003497;28;20046;-90
2023/06/11 11:19:25;;;;;;;8.65;5.38;;;30.50;92.90;;;;;;5005536;28;20088;-91
2023/06/11 11:21:51;;;;;;;8.48;5.53;;;30.60;91.60;;;;;;4996350;28;20100;-91
2023/06/11 11:24:17;;;;;;;9.95;5.72;;;30.60;92.70;;;;;;5001487;28;20481;-90
2023/06/11 11:26:44;;;;;;;7.80;5.60;;;30.70;92.30;;;;;;5001292;28;20104;-91
2023/06/11 11:29:09;;;;;;;7.60;5.15;;;30.90;92.20;;;;;;4984161;28;20166;-91
2023/06/11 11:31:37;;;;;;;6.35;5.30;;;30.90;92.00;;;;;;4997758;28;20046;-91
2023/06/11 11:34:02;;;;;;;7.28;5.22;;;31.00;91.90;;;;;;5001453;28;20566;-89
2023/06/11 11:36:28;;;;;;;8.93;5.93;;;31.10;91.50;;;;;;4995777;28;20034;-89
2023/06/11 11:38:54;;;;;;;11.85;5.80;;;31.20;91.60;;;;;;4995485;28;20034;-92
2023/06/11 11:41:22;;;;;;;7.82;5.57;;;31.30;90.60;;;;;;4999883;28;20065;-90
2023/06/11 11:43:49;;;;;;;8.55;5.38;;;31.40;91.30;;;;;;4998817;28;20053;-90
2023/06/11 11:46:19;;;;;;;9.27;5.53;;;31.30;90.80;;;;;;5002478;28;20053;-91
2023/06/11 11:48:46;;;;;;;8.88;5.60;;;31.30;91.00;;;;;;4994696;28;20050;-90
2023/06/11 11:51:15;;;;;;;7.28;5.30;;;31.30;90.40;;;;;;4999589;28;20060;-90
2023/06/11 11:53:42;;;;;;;9.48;6.03;;;31.30;90.50;;;;;;4994741;28;20047;-90
2023/06/11 11:56:08;;;;;;;7.63;5.47;;;31.30;90.30;;;;;;5001385;28;20045;-90
2023/06/11 11:58:38;;;;;;;8.65;5.78;;;31.40;90.00;;;;;;4996012;28;20034;-91
2023/06/11 12:01:04;;;;;;;7.75;5.80;;;31.40;88.80;;;;;;4999607;28;20039;-92
2023/06/11 12:03:30;;;;;;;9.20;5.80;;;31.50;90.10;;;;;;4997050;28;20076;-91
2023/06/11 12:06:04;;;;;;;8.40;5.82;;;31.60;90.10;;;;;;5000222;28;20480;-91
2023/06/11 12:08:31;;;;;;;12.45;5.78;;;31.60;89.60;;;;;;4992546;28;20047;-91
2023/06/11 12:10:58;;;;;;;8.88;5.80;;;31.80;90.20;;;;;;4992863;28;20648;-92
2023/06/11 12:13:23;;;;;;;6.88;5.60;;;31.80;89.50;;;;;;5001852;28;20038;-92
2023/06/11 12:15:49;;;;;;;9.25;5.60;;;31.70;88.60;;;;;;4994097;28;20041;-92
2023/06/11 12:18:15;;;;;;;8.38;5.60;;;31.70;87.50;;;;;;4986604;28;20057;-91
2023/06/11 12:20:41;;;;;;;7.72;5.40;;;31.70;88.10;;;;;;5001772;28;20437;-92
2023/06/11 12:23:07;;;;;;;8.52;5.85;;;31.80;88.20;;;;;;4994682;28;20038;-91
2023/06/11 12:25:33;;;;;;;11.05;5.95;;;31.90;88.30;;;;;;4997604;28;20049;-92
2023/06/11 12:27:59;;;;;;;6.93;5.75;;;32.00;87.60;;;;;;5002630;28;20393;-92
2023/06/11 12:30:26;;;;;;;11.52;6.32;;;32.20;88.40;;;;;;4998383;28;20049;-91
2023/06/11 12:32:52;;;;;;;8.65;5.60;;;32.10;85.80;;;;;;4999712;28;20057;-91
2023/06/11 12:35:18;;;;;;;9.10;5.72;;;32.10;84.90;;;;;;4994678;28;20469;-91